sensor_id;sensor_type;location;lat;lon;timestamp;P1;durP1;ratioP1;P2;durP2;ratioP2
56752;SDS011;42627;42.646;23.642;2022-07-22T00:01:19;4.82;;;2.25;;
56752;SDS011;42627;42.646;23.642;2022-07-22T00:03:20;3.30;;;2.10;;
56752;SDS011;42627;42.646;23.642;2022-07-22T00:05:21;3.97;;;1.75;;
56752;SDS011;42627;42.646;23.642;2022-07-22T00:07:22;3.50;;;2.10;;
56752;SDS011;42627;42.646;23.642;2022-07-22T00:09:22;5.25;;;2.03;;
56752;SDS011;42627;42.646;23.642;2022-07-22T00:11:23;3.28;;;1.90;;
56752;SDS011;42627;42.646;23.642;2022-07-22T00:13:24;3.95;;;2.20;;
56752;SDS011;42627;42.646;23.642;2022-07-22T00:15:25;2.65;;;1.55;;
56752;SDS011;42627;42.646;23.642;2022-07-22T00:17:25;6.10;;;2.00;;
56752;SDS011;42627;42.646;23.642;2022-07-22T00:19:26;3.08;;;1.85;;
56752;SDS011;42627;42.646;23.642;2022-07-22T00:21:27;4.32;;;2.10;;
56752;SDS011;42627;42.646;23.642;2022-07-22T00:23:27;4.55;;;2.05;;
56752;SDS011;42627;42.646;23.642;2022-07-22T00:25:28;3.67;;;1.98;;
56752;SDS011;42627;42.646;23.642;2022-07-22T00:27:29;4.43;;;1.98;;
56752;SDS011;42627;42.646;23.642;2022-07-22T00:29:30;3.30;;;2.05;;
56752;SDS011;42627;42.646;23.642;2022-07-22T00:31:30;4.75;;;2.67;;
56752;SDS011;42627;42.646;23.642;2022-07-22T00:33:31;4.55;;;2.20;;
56752;SDS011;42627;42.646;23.642;2022-07-22T00:35:32;2.90;;;1.88;;
56752;SDS011;42627;42.646;23.642;2022-07-22T00:37:32;4.15;;;2.40;;
56752;SDS011;42627;42.646;23.642;2022-07-22T00:39:33;7.25;;;2.35;;
56752;SDS011;42627;42.646;23.642;2022-07-22T00:41:34;7.45;;;2.13;;
56752;SDS011;42627;42.646;23.642;2022-07-22T00:43:54;3.85;;;2.17;;
56752;SDS011;42627;42.646;23.642;2022-07-22T00:45:58;3.90;;;1.90;;
56752;SDS011;42627;42.646;23.642;2022-07-22T00:48:00;4.68;;;2.20;;
56752;SDS011;42627;42.646;23.642;2022-07-22T00:50:00;4.97;;;1.95;;
56752;SDS011;42627;42.646;23.642;2022-07-22T00:52:01;2.70;;;1.70;;
56752;SDS011;42627;42.646;23.642;2022-07-22T00:54:03;4.47;;;2.10;;
56752;SDS011;42627;42.646;23.642;2022-07-22T00:56:04;4.47;;;2.30;;
56752;SDS011;42627;42.646;23.642;2022-07-22T00:58:05;4.32;;;2.15;;
56752;SDS011;42627;42.646;23.642;2022-07-22T01:00:07;5.55;;;2.45;;
56752;SDS011;42627;42.646;23.642;2022-07-22T01:02:11;3.33;;;1.90;;
56752;SDS011;42627;42.646;23.642;2022-07-22T01:04:12;4.05;;;2.00;;
56752;SDS011;42627;42.646;23.642;2022-07-22T01:06:13;4.38;;;2.25;;
56752;SDS011;42627;42.646;23.642;2022-07-22T01:08:14;4.25;;;2.38;;
56752;SDS011;42627;42.646;23.642;2022-07-22T01:10:15;3.67;;;2.08;;
56752;SDS011;42627;42.646;23.642;2022-07-22T01:12:15;6.38;;;2.42;;
56752;SDS011;42627;42.646;23.642;2022-07-22T01:14:16;4.78;;;2.10;;
56752;SDS011;42627;42.646;23.642;2022-07-22T01:16:17;5.03;;;2.10;;
56752;SDS011;42627;42.646;23.642;2022-07-22T01:18:18;4.63;;;2.30;;
56752;SDS011;42627;42.646;23.642;2022-07-22T01:20:19;7.20;;;2.28;;
56752;SDS011;42627;42.646;23.642;2022-07-22T01:22:20;5.00;;;2.17;;
56752;SDS011;42627;42.646;23.642;2022-07-22T01:24:20;4.75;;;2.40;;
56752;SDS011;42627;42.646;23.642;2022-07-22T01:26:21;4.28;;;2.50;;
56752;SDS011;42627;42.646;23.642;2022-07-22T01:28:22;5.05;;;2.28;;
56752;SDS011;42627;42.646;23.642;2022-07-22T01:30:23;3.53;;;2.13;;
56752;SDS011;42627;42.646;23.642;2022-07-22T01:32:33;4.82;;;2.17;;
56752;SDS011;42627;42.646;23.642;2022-07-22T01:34:34;4.32;;;2.15;;
56752;SDS011;42627;42.646;23.642;2022-07-22T01:36:34;5.47;;;2.67;;
56752;SDS011;42627;42.646;23.642;2022-07-22T01:38:35;6.00;;;2.53;;
56752;SDS011;42627;42.646;23.642;2022-07-22T01:40:36;3.80;;;2.10;;
56752;SDS011;42627;42.646;23.642;2022-07-22T01:42:37;4.47;;;2.40;;
56752;SDS011;42627;42.646;23.642;2022-07-22T01:44:37;4.65;;;1.90;;
56752;SDS011;42627;42.646;23.642;2022-07-22T01:46:38;7.15;;;2.25;;
56752;SDS011;42627;42.646;23.642;2022-07-22T01:48:39;4.97;;;2.55;;
56752;SDS011;42627;42.646;23.642;2022-07-22T01:50:41;6.78;;;2.40;;
56752;SDS011;42627;42.646;23.642;2022-07-22T01:52:42;4.32;;;2.15;;
56752;SDS011;42627;42.646;23.642;2022-07-22T01:54:43;3.95;;;2.08;;
56752;SDS011;42627;42.646;23.642;2022-07-22T01:56:44;2.80;;;1.75;;
56752;SDS011;42627;42.646;23.642;2022-07-22T01:58:44;4.70;;;2.22;;
56752;SDS011;42627;42.646;23.642;2022-07-22T02:00:45;4.88;;;2.40;;
56752;SDS011;42627;42.646;23.642;2022-07-22T02:02:46;6.05;;;2.70;;
56752;SDS011;42627;42.646;23.642;2022-07-22T02:04:47;3.65;;;2.10;;
56752;SDS011;42627;42.646;23.642;2022-07-22T02:06:47;4.78;;;2.72;;
56752;SDS011;42627;42.646;23.642;2022-07-22T02:08:48;4.20;;;2.10;;
56752;SDS011;42627;42.646;23.642;2022-07-22T02:10:49;4.70;;;2.58;;
56752;SDS011;42627;42.646;23.642;2022-07-22T02:12:49;4.45;;;2.20;;
56752;SDS011;42627;42.646;23.642;2022-07-22T02:14:50;5.90;;;3.00;;
56752;SDS011;42627;42.646;23.642;2022-07-22T02:16:51;4.88;;;2.30;;
56752;SDS011;42627;42.646;23.642;2022-07-22T02:18:51;6.20;;;2.58;;
56752;SDS011;42627;42.646;23.642;2022-07-22T02:20:52;5.03;;;2.47;;
56752;SDS011;42627;42.646;23.642;2022-07-22T02:22:53;4.60;;;2.38;;
56752;SDS011;42627;42.646;23.642;2022-07-22T02:24:56;4.55;;;2.20;;
56752;SDS011;42627;42.646;23.642;2022-07-22T02:26:57;4.15;;;2.30;;
56752;SDS011;42627;42.646;23.642;2022-07-22T02:28:58;5.35;;;2.17;;
56752;SDS011;42627;42.646;23.642;2022-07-22T02:30:59;4.57;;;2.28;;
56752;SDS011;42627;42.646;23.642;2022-07-22T02:33:00;5.80;;;2.88;;
56752;SDS011;42627;42.646;23.642;2022-07-22T02:35:01;5.22;;;3.05;;
56752;SDS011;42627;42.646;23.642;2022-07-22T02:37:02;4.63;;;2.60;;
56752;SDS011;42627;42.646;23.642;2022-07-22T02:39:03;4.38;;;2.65;;
56752;SDS011;42627;42.646;23.642;2022-07-22T02:41:04;4.68;;;2.55;;
56752;SDS011;42627;42.646;23.642;2022-07-22T02:43:05;3.80;;;2.33;;
56752;SDS011;42627;42.646;23.642;2022-07-22T02:45:07;6.70;;;2.60;;
56752;SDS011;42627;42.646;23.642;2022-07-22T02:47:07;6.20;;;2.22;;
56752;SDS011;42627;42.646;23.642;2022-07-22T02:49:08;5.05;;;2.90;;
56752;SDS011;42627;42.646;23.642;2022-07-22T02:51:09;8.45;;;2.90;;
56752;SDS011;42627;42.646;23.642;2022-07-22T02:53:09;7.32;;;2.50;;
56752;SDS011;42627;42.646;23.642;2022-07-22T02:55:10;4.25;;;2.45;;
56752;SDS011;42627;42.646;23.642;2022-07-22T02:57:11;5.68;;;2.80;;
56752;SDS011;42627;42.646;23.642;2022-07-22T02:59:11;5.32;;;3.22;;
56752;SDS011;42627;42.646;23.642;2022-07-22T03:01:12;4.45;;;2.70;;
56752;SDS011;42627;42.646;23.642;2022-07-22T03:03:19;5.65;;;2.60;;
56752;SDS011;42627;42.646;23.642;2022-07-22T03:05:19;4.78;;;2.60;;
56752;SDS011;42627;42.646;23.642;2022-07-22T03:07:21;6.80;;;2.88;;
56752;SDS011;42627;42.646;23.642;2022-07-22T03:09:21;5.18;;;2.65;;
56752;SDS011;42627;42.646;23.642;2022-07-22T03:13:42;5.68;;;3.13;;
56752;SDS011;42627;42.646;23.642;2022-07-22T03:15:43;6.53;;;2.55;;
56752;SDS011;42627;42.646;23.642;2022-07-22T03:17:44;6.50;;;2.92;;
56752;SDS011;42627;42.646;23.642;2022-07-22T03:19:44;5.85;;;2.75;;
56752;SDS011;42627;42.646;23.642;2022-07-22T03:21:45;6.00;;;3.13;;
56752;SDS011;42627;42.646;23.642;2022-07-22T03:23:46;5.45;;;2.90;;
56752;SDS011;42627;42.646;23.642;2022-07-22T03:25:46;3.97;;;2.35;;
56752;SDS011;42627;42.646;23.642;2022-07-22T03:27:47;7.65;;;3.05;;
56752;SDS011;42627;42.646;23.642;2022-07-22T03:29:48;8.13;;;2.88;;
56752;SDS011;42627;42.646;23.642;2022-07-22T03:34:19;5.17;;;2.80;;
56752;SDS011;42627;42.646;23.642;2022-07-22T03:36:24;6.13;;;2.88;;
56752;SDS011;42627;42.646;23.642;2022-07-22T03:38:26;6.05;;;2.95;;
56752;SDS011;42627;42.646;23.642;2022-07-22T03:40:27;8.30;;;2.97;;
56752;SDS011;42627;42.646;23.642;2022-07-22T03:42:27;4.78;;;2.60;;
56752;SDS011;42627;42.646;23.642;2022-07-22T03:44:28;5.25;;;2.60;;
56752;SDS011;42627;42.646;23.642;2022-07-22T03:46:30;5.57;;;2.67;;
56752;SDS011;42627;42.646;23.642;2022-07-22T03:48:36;6.78;;;3.88;;
56752;SDS011;42627;42.646;23.642;2022-07-22T03:50:37;7.32;;;2.92;;
56752;SDS011;42627;42.646;23.642;2022-07-22T03:52:37;4.70;;;2.60;;
56752;SDS011;42627;42.646;23.642;2022-07-22T03:54:38;6.68;;;3.03;;
56752;SDS011;42627;42.646;23.642;2022-07-22T03:56:39;6.10;;;2.75;;
56752;SDS011;42627;42.646;23.642;2022-07-22T03:58:55;5.40;;;2.72;;
56752;SDS011;42627;42.646;23.642;2022-07-22T04:00:56;4.53;;;2.70;;
56752;SDS011;42627;42.646;23.642;2022-07-22T04:02:56;5.93;;;3.00;;
56752;SDS011;42627;42.646;23.642;2022-07-22T04:04:57;5.05;;;2.63;;
56752;SDS011;42627;42.646;23.642;2022-07-22T04:06:58;5.20;;;2.85;;
56752;SDS011;42627;42.646;23.642;2022-07-22T04:08:58;6.20;;;2.97;;
56752;SDS011;42627;42.646;23.642;2022-07-22T04:10:59;6.45;;;3.00;;
56752;SDS011;42627;42.646;23.642;2022-07-22T04:13:00;4.80;;;2.75;;
56752;SDS011;42627;42.646;23.642;2022-07-22T04:17:45;5.47;;;2.75;;
56752;SDS011;42627;42.646;23.642;2022-07-22T04:19:45;6.00;;;2.90;;
56752;SDS011;42627;42.646;23.642;2022-07-22T04:21:46;8.50;;;3.60;;
56752;SDS011;42627;42.646;23.642;2022-07-22T04:23:47;5.47;;;3.00;;
56752;SDS011;42627;42.646;23.642;2022-07-22T04:25:48;7.03;;;2.83;;
56752;SDS011;42627;42.646;23.642;2022-07-22T04:27:48;6.07;;;3.00;;
56752;SDS011;42627;42.646;23.642;2022-07-22T04:29:50;5.45;;;2.70;;
56752;SDS011;42627;42.646;23.642;2022-07-22T04:31:51;6.75;;;3.63;;
56752;SDS011;42627;42.646;23.642;2022-07-22T04:38:51;8.02;;;3.33;;
56752;SDS011;42627;42.646;23.642;2022-07-22T04:40:52;6.32;;;3.42;;
56752;SDS011;42627;42.646;23.642;2022-07-22T04:42:53;5.70;;;3.03;;
56752;SDS011;42627;42.646;23.642;2022-07-22T04:44:53;5.57;;;3.28;;
56752;SDS011;42627;42.646;23.642;2022-07-22T04:49:16;8.00;;;3.72;;
56752;SDS011;42627;42.646;23.642;2022-07-22T04:51:17;7.35;;;3.35;;
56752;SDS011;42627;42.646;23.642;2022-07-22T04:55:28;7.97;;;4.00;;
56752;SDS011;42627;42.646;23.642;2022-07-22T04:57:29;6.80;;;3.70;;
56752;SDS011;42627;42.646;23.642;2022-07-22T04:59:30;7.78;;;3.75;;
56752;SDS011;42627;42.646;23.642;2022-07-22T05:01:30;7.07;;;3.50;;
56752;SDS011;42627;42.646;23.642;2022-07-22T05:08:22;7.80;;;3.70;;
56752;SDS011;42627;42.646;23.642;2022-07-22T05:10:23;8.75;;;3.78;;
56752;SDS011;42627;42.646;23.642;2022-07-22T05:12:23;7.82;;;4.13;;
56752;SDS011;42627;42.646;23.642;2022-07-22T05:14:24;6.88;;;3.65;;
56752;SDS011;42627;42.646;23.642;2022-07-22T05:16:25;7.15;;;3.55;;
56752;SDS011;42627;42.646;23.642;2022-07-22T05:18:25;8.90;;;4.00;;
56752;SDS011;42627;42.646;23.642;2022-07-22T05:20:26;7.18;;;3.63;;
56752;SDS011;42627;42.646;23.642;2022-07-22T05:22:27;7.82;;;4.03;;
56752;SDS011;42627;42.646;23.642;2022-07-22T05:24:27;6.80;;;3.58;;
56752;SDS011;42627;42.646;23.642;2022-07-22T05:26:28;6.47;;;3.90;;
56752;SDS011;42627;42.646;23.642;2022-07-22T05:28:29;8.73;;;3.90;;
56752;SDS011;42627;42.646;23.642;2022-07-22T05:30:29;6.97;;;3.92;;
56752;SDS011;42627;42.646;23.642;2022-07-22T05:37:29;7.45;;;3.97;;
56752;SDS011;42627;42.646;23.642;2022-07-22T05:39:30;6.53;;;4.05;;
56752;SDS011;42627;42.646;23.642;2022-07-22T05:41:31;6.22;;;4.07;;
56752;SDS011;42627;42.646;23.642;2022-07-22T05:43:31;5.45;;;3.17;;
56752;SDS011;42627;42.646;23.642;2022-07-22T05:45:32;7.57;;;4.45;;
56752;SDS011;42627;42.646;23.642;2022-07-22T05:47:32;6.55;;;4.00;;
56752;SDS011;42627;42.646;23.642;2022-07-22T05:49:33;6.65;;;4.03;;
56752;SDS011;42627;42.646;23.642;2022-07-22T05:53:44;8.73;;;3.78;;
56752;SDS011;42627;42.646;23.642;2022-07-22T05:55:45;11.25;;;4.30;;
56752;SDS011;42627;42.646;23.642;2022-07-22T05:57:46;7.57;;;4.80;;
56752;SDS011;42627;42.646;23.642;2022-07-22T05:59:46;6.43;;;3.58;;
56752;SDS011;42627;42.646;23.642;2022-07-22T06:01:47;9.43;;;4.78;;
56752;SDS011;42627;42.646;23.642;2022-07-22T06:03:48;5.95;;;3.78;;
56752;SDS011;42627;42.646;23.642;2022-07-22T06:05:48;9.05;;;4.18;;
56752;SDS011;42627;42.646;23.642;2022-07-22T06:12:39;6.43;;;3.80;;
56752;SDS011;42627;42.646;23.642;2022-07-22T06:14:40;7.97;;;3.85;;
56752;SDS011;42627;42.646;23.642;2022-07-22T06:16:41;6.15;;;3.83;;
56752;SDS011;42627;42.646;23.642;2022-07-22T06:18:41;7.65;;;3.75;;
56752;SDS011;42627;42.646;23.642;2022-07-22T06:20:43;5.10;;;3.42;;
56752;SDS011;42627;42.646;23.642;2022-07-22T06:22:44;6.25;;;4.10;;
56752;SDS011;42627;42.646;23.642;2022-07-22T06:24:45;6.90;;;4.05;;
56752;SDS011;42627;42.646;23.642;2022-07-22T06:26:46;6.75;;;3.85;;
56752;SDS011;42627;42.646;23.642;2022-07-22T06:28:46;6.45;;;4.10;;
56752;SDS011;42627;42.646;23.642;2022-07-22T06:30:47;7.57;;;4.40;;
56752;SDS011;42627;42.646;23.642;2022-07-22T06:32:48;9.50;;;4.30;;
56752;SDS011;42627;42.646;23.642;2022-07-22T06:34:48;7.65;;;4.22;;
56752;SDS011;42627;42.646;23.642;2022-07-22T06:38:59;8.38;;;4.25;;
56752;SDS011;42627;42.646;23.642;2022-07-22T06:41:00;8.05;;;3.90;;
56752;SDS011;42627;42.646;23.642;2022-07-22T06:43:01;7.43;;;3.80;;
56752;SDS011;42627;42.646;23.642;2022-07-22T06:45:02;9.77;;;3.88;;
56752;SDS011;42627;42.646;23.642;2022-07-22T06:52:03;6.78;;;4.00;;
56752;SDS011;42627;42.646;23.642;2022-07-22T06:54:04;6.70;;;4.07;;
56752;SDS011;42627;42.646;23.642;2022-07-22T06:56:04;9.88;;;4.40;;
56752;SDS011;42627;42.646;23.642;2022-07-22T06:58:05;7.95;;;4.57;;
56752;SDS011;42627;42.646;23.642;2022-07-22T07:00:06;8.15;;;4.10;;
56752;SDS011;42627;42.646;23.642;2022-07-22T07:02:08;7.95;;;4.45;;
56752;SDS011;42627;42.646;23.642;2022-07-22T07:04:09;5.40;;;3.35;;
56752;SDS011;42627;42.646;23.642;2022-07-22T07:08:29;8.20;;;3.25;;
56752;SDS011;42627;42.646;23.642;2022-07-22T07:10:30;6.40;;;3.58;;
56752;SDS011;42627;42.646;23.642;2022-07-22T07:12:30;7.47;;;3.63;;
56752;SDS011;42627;42.646;23.642;2022-07-22T07:14:31;6.97;;;3.55;;
56752;SDS011;42627;42.646;23.642;2022-07-22T07:22:05;5.72;;;3.53;;
56752;SDS011;42627;42.646;23.642;2022-07-22T07:24:06;8.13;;;3.50;;
56752;SDS011;42627;42.646;23.642;2022-07-22T07:26:07;7.35;;;3.72;;
56752;SDS011;42627;42.646;23.642;2022-07-22T07:28:08;8.15;;;3.30;;
56752;SDS011;42627;42.646;23.642;2022-07-22T07:30:08;6.65;;;3.10;;
56752;SDS011;42627;42.646;23.642;2022-07-22T07:32:09;17.35;;;7.15;;
56752;SDS011;42627;42.646;23.642;2022-07-22T07:34:10;8.25;;;3.50;;
56752;SDS011;42627;42.646;23.642;2022-07-22T07:36:11;8.45;;;3.15;;
56752;SDS011;42627;42.646;23.642;2022-07-22T07:38:11;6.95;;;3.15;;
56752;SDS011;42627;42.646;23.642;2022-07-22T07:40:12;6.07;;;3.15;;
56752;SDS011;42627;42.646;23.642;2022-07-22T07:42:13;6.70;;;3.00;;
56752;SDS011;42627;42.646;23.642;2022-07-22T07:44:14;8.82;;;3.10;;
56752;SDS011;42627;42.646;23.642;2022-07-22T07:46:14;4.50;;;2.95;;
56752;SDS011;42627;42.646;23.642;2022-07-22T07:48:15;7.60;;;3.40;;
56752;SDS011;42627;42.646;23.642;2022-07-22T07:50:15;8.30;;;3.67;;
56752;SDS011;42627;42.646;23.642;2022-07-22T07:57:22;5.22;;;3.00;;
56752;SDS011;42627;42.646;23.642;2022-07-22T07:59:22;6.88;;;3.13;;
56752;SDS011;42627;42.646;23.642;2022-07-22T08:01:23;7.10;;;3.22;;
56752;SDS011;42627;42.646;23.642;2022-07-22T08:03:24;7.88;;;3.60;;
56752;SDS011;42627;42.646;23.642;2022-07-22T08:05:24;7.13;;;2.92;;
56752;SDS011;42627;42.646;23.642;2022-07-22T08:07:25;6.80;;;3.00;;
56752;SDS011;42627;42.646;23.642;2022-07-22T08:09:26;6.63;;;3.13;;
56752;SDS011;42627;42.646;23.642;2022-07-22T08:11:32;4.30;;;2.95;;
56752;SDS011;42627;42.646;23.642;2022-07-22T08:13:33;6.90;;;3.00;;
56752;SDS011;42627;42.646;23.642;2022-07-22T08:15:34;9.27;;;3.25;;
56752;SDS011;42627;42.646;23.642;2022-07-22T08:17:37;6.25;;;3.08;;
56752;SDS011;42627;42.646;23.642;2022-07-22T08:19:37;5.57;;;2.70;;
56752;SDS011;42627;42.646;23.642;2022-07-22T08:24:14;7.70;;;2.88;;
56752;SDS011;42627;42.646;23.642;2022-07-22T08:26:20;5.95;;;2.70;;
56752;SDS011;42627;42.646;23.642;2022-07-22T08:28:21;5.13;;;2.95;;
56752;SDS011;42627;42.646;23.642;2022-07-22T08:30:21;5.75;;;3.08;;
56752;SDS011;42627;42.646;23.642;2022-07-22T08:32:27;5.05;;;2.55;;
56752;SDS011;42627;42.646;23.642;2022-07-22T08:34:27;5.22;;;3.05;;
56752;SDS011;42627;42.646;23.642;2022-07-22T08:36:28;4.82;;;2.75;;
56752;SDS011;42627;42.646;23.642;2022-07-22T08:38:30;5.15;;;2.60;;
56752;SDS011;42627;42.646;23.642;2022-07-22T08:42:42;8.20;;;2.70;;
56752;SDS011;42627;42.646;23.642;2022-07-22T08:44:44;5.22;;;2.53;;
56752;SDS011;42627;42.646;23.642;2022-07-22T08:46:45;4.68;;;3.20;;
56752;SDS011;42627;42.646;23.642;2022-07-22T08:48:46;3.72;;;2.58;;
56752;SDS011;42627;42.646;23.642;2022-07-22T08:53:27;4.60;;;2.15;;
56752;SDS011;42627;42.646;23.642;2022-07-22T08:56:06;6.15;;;2.80;;
56752;SDS011;42627;42.646;23.642;2022-07-22T08:58:07;5.25;;;2.63;;
56752;SDS011;42627;42.646;23.642;2022-07-22T09:00:08;6.18;;;2.80;;
56752;SDS011;42627;42.646;23.642;2022-07-22T09:02:11;4.60;;;2.38;;
56752;SDS011;42627;42.646;23.642;2022-07-22T09:04:12;3.42;;;2.33;;
56752;SDS011;42627;42.646;23.642;2022-07-22T09:06:13;5.85;;;2.97;;
56752;SDS011;42627;42.646;23.642;2022-07-22T09:08:13;4.57;;;2.10;;
56752;SDS011;42627;42.646;23.642;2022-07-22T09:10:32;5.25;;;2.97;;
56752;SDS011;42627;42.646;23.642;2022-07-22T09:12:34;4.45;;;2.45;;
56752;SDS011;42627;42.646;23.642;2022-07-22T09:14:51;5.60;;;2.50;;
56752;SDS011;42627;42.646;23.642;2022-07-22T09:16:53;3.75;;;2.20;;
56752;SDS011;42627;42.646;23.642;2022-07-22T09:18:54;4.20;;;2.60;;
56752;SDS011;42627;42.646;23.642;2022-07-22T09:21:11;4.07;;;2.38;;
56752;SDS011;42627;42.646;23.642;2022-07-22T09:30:07;4.80;;;2.30;;
56752;SDS011;42627;42.646;23.642;2022-07-22T09:32:13;5.85;;;2.58;;
56752;SDS011;42627;42.646;23.642;2022-07-22T09:34:14;3.92;;;2.10;;
56752;SDS011;42627;42.646;23.642;2022-07-22T09:36:30;4.28;;;2.35;;
56752;SDS011;42627;42.646;23.642;2022-07-22T09:38:31;4.85;;;2.55;;
56752;SDS011;42627;42.646;23.642;2022-07-22T09:42:52;4.43;;;2.20;;
56752;SDS011;42627;42.646;23.642;2022-07-22T09:44:57;5.47;;;2.33;;
56752;SDS011;42627;42.646;23.642;2022-07-22T09:46:57;4.90;;;2.65;;
56752;SDS011;42627;42.646;23.642;2022-07-22T09:48:58;3.63;;;2.03;;
56752;SDS011;42627;42.646;23.642;2022-07-22T09:51:00;5.00;;;2.47;;
56752;SDS011;42627;42.646;23.642;2022-07-22T09:53:03;4.72;;;2.00;;
56752;SDS011;42627;42.646;23.642;2022-07-22T09:57:25;7.53;;;2.42;;
56752;SDS011;42627;42.646;23.642;2022-07-22T09:59:25;3.42;;;1.80;;
56752;SDS011;42627;42.646;23.642;2022-07-22T10:01:26;5.05;;;2.83;;
56752;SDS011;42627;42.646;23.642;2022-07-22T10:03:29;3.88;;;2.20;;
56752;SDS011;42627;42.646;23.642;2022-07-22T10:05:35;4.30;;;2.30;;
56752;SDS011;42627;42.646;23.642;2022-07-22T10:07:39;3.70;;;2.20;;
56752;SDS011;42627;42.646;23.642;2022-07-22T10:09:43;13.48;;;3.20;;
56752;SDS011;42627;42.646;23.642;2022-07-22T10:11:46;4.05;;;2.30;;
56752;SDS011;42627;42.646;23.642;2022-07-22T10:13:48;3.97;;;2.28;;
56752;SDS011;42627;42.646;23.642;2022-07-22T10:15:48;3.47;;;2.05;;
56752;SDS011;42627;42.646;23.642;2022-07-22T10:17:51;4.43;;;2.45;;
56752;SDS011;42627;42.646;23.642;2022-07-22T10:19:58;3.55;;;2.42;;
56752;SDS011;42627;42.646;23.642;2022-07-22T10:21:59;5.47;;;2.42;;
56752;SDS011;42627;42.646;23.642;2022-07-22T10:24:07;4.00;;;2.30;;
56752;SDS011;42627;42.646;23.642;2022-07-22T10:31:41;5.05;;;2.40;;
56752;SDS011;42627;42.646;23.642;2022-07-22T10:33:42;4.30;;;2.22;;
56752;SDS011;42627;42.646;23.642;2022-07-22T10:38:02;3.58;;;2.13;;
56752;SDS011;42627;42.646;23.642;2022-07-22T10:42:21;2.88;;;1.75;;
56752;SDS011;42627;42.646;23.642;2022-07-22T10:47:10;3.63;;;1.70;;
56752;SDS011;42627;42.646;23.642;2022-07-22T10:49:11;3.70;;;1.90;;
56752;SDS011;42627;42.646;23.642;2022-07-22T10:51:12;3.22;;;1.58;;
56752;SDS011;42627;42.646;23.642;2022-07-22T10:53:19;7.32;;;1.88;;
56752;SDS011;42627;42.646;23.642;2022-07-22T10:55:22;3.83;;;1.70;;
56752;SDS011;42627;42.646;23.642;2022-07-22T10:57:30;3.85;;;1.80;;
56752;SDS011;42627;42.646;23.642;2022-07-22T10:59:31;3.58;;;1.65;;
56752;SDS011;42627;42.646;23.642;2022-07-22T11:01:45;3.53;;;1.73;;
56752;SDS011;42627;42.646;23.642;2022-07-22T11:06:47;7.03;;;1.85;;
56752;SDS011;42627;42.646;23.642;2022-07-22T11:08:56;5.03;;;1.85;;
56752;SDS011;42627;42.646;23.642;2022-07-22T11:10:58;3.55;;;2.00;;
56752;SDS011;42627;42.646;23.642;2022-07-22T11:12:59;3.25;;;1.58;;
56752;SDS011;42627;42.646;23.642;2022-07-22T11:15:02;2.55;;;1.60;;
56752;SDS011;42627;42.646;23.642;2022-07-22T11:17:04;2.78;;;1.60;;
56752;SDS011;42627;42.646;23.642;2022-07-22T11:19:07;3.97;;;1.48;;
56752;SDS011;42627;42.646;23.642;2022-07-22T11:21:24;5.00;;;2.13;;
56752;SDS011;42627;42.646;23.642;2022-07-22T11:23:27;4.45;;;2.00;;
56752;SDS011;42627;42.646;23.642;2022-07-22T11:25:28;2.92;;;1.60;;
56752;SDS011;42627;42.646;23.642;2022-07-22T11:27:29;3.03;;;1.70;;
56752;SDS011;42627;42.646;23.642;2022-07-22T11:29:35;5.93;;;1.80;;
56752;SDS011;42627;42.646;23.642;2022-07-22T11:34:13;4.07;;;1.50;;
56752;SDS011;42627;42.646;23.642;2022-07-22T11:36:16;3.65;;;1.33;;
56752;SDS011;42627;42.646;23.642;2022-07-22T11:38:16;3.08;;;1.85;;
56752;SDS011;42627;42.646;23.642;2022-07-22T11:40:19;2.90;;;1.75;;
56752;SDS011;42627;42.646;23.642;2022-07-22T11:42:20;6.03;;;2.33;;
56752;SDS011;42627;42.646;23.642;2022-07-22T11:44:27;2.90;;;1.63;;
56752;SDS011;42627;42.646;23.642;2022-07-22T11:46:34;2.88;;;1.38;;
56752;SDS011;42627;42.646;23.642;2022-07-22T11:48:40;3.17;;;1.70;;
56752;SDS011;42627;42.646;23.642;2022-07-22T11:50:43;3.20;;;1.42;;
56752;SDS011;42627;42.646;23.642;2022-07-22T11:52:53;2.65;;;1.48;;
56752;SDS011;42627;42.646;23.642;2022-07-22T11:54:54;2.78;;;1.48;;
56752;SDS011;42627;42.646;23.642;2022-07-22T11:56:54;3.30;;;1.77;;
56752;SDS011;42627;42.646;23.642;2022-07-22T11:58:56;3.67;;;2.03;;
56752;SDS011;42627;42.646;23.642;2022-07-22T12:01:10;4.05;;;1.75;;
56752;SDS011;42627;42.646;23.642;2022-07-22T12:03:17;5.55;;;1.98;;
56752;SDS011;42627;42.646;23.642;2022-07-22T12:05:36;5.05;;;1.50;;
56752;SDS011;42627;42.646;23.642;2022-07-22T12:07:37;4.13;;;1.85;;
56752;SDS011;42627;42.646;23.642;2022-07-22T12:09:37;4.53;;;1.98;;
56752;SDS011;42627;42.646;23.642;2022-07-22T12:11:42;3.92;;;2.15;;
56752;SDS011;42627;42.646;23.642;2022-07-22T12:13:45;3.33;;;1.60;;
56752;SDS011;42627;42.646;23.642;2022-07-22T12:15:47;3.55;;;1.63;;
56752;SDS011;42627;42.646;23.642;2022-07-22T12:17:47;2.88;;;1.90;;
56752;SDS011;42627;42.646;23.642;2022-07-22T12:19:48;4.60;;;2.00;;
56752;SDS011;42627;42.646;23.642;2022-07-22T12:21:51;3.67;;;1.75;;
56752;SDS011;42627;42.646;23.642;2022-07-22T12:26:06;2.47;;;1.38;;
56752;SDS011;42627;42.646;23.642;2022-07-22T12:28:10;4.78;;;1.77;;
56752;SDS011;42627;42.646;23.642;2022-07-22T12:30:11;5.60;;;1.95;;
56752;SDS011;42627;42.646;23.642;2022-07-22T12:42:21;4.43;;;1.63;;
56752;SDS011;42627;42.646;23.642;2022-07-22T12:44:24;2.63;;;1.52;;
56752;SDS011;42627;42.646;23.642;2022-07-22T12:46:25;2.67;;;1.67;;
56752;SDS011;42627;42.646;23.642;2022-07-22T12:48:29;5.63;;;1.90;;
56752;SDS011;42627;42.646;23.642;2022-07-22T12:50:31;7.13;;;1.97;;
56752;SDS011;42627;42.646;23.642;2022-07-22T12:52:33;3.67;;;1.70;;
56752;SDS011;42627;42.646;23.642;2022-07-22T12:54:39;3.75;;;1.63;;
56752;SDS011;42627;42.646;23.642;2022-07-22T12:56:41;5.88;;;2.13;;
56752;SDS011;42627;42.646;23.642;2022-07-22T12:58:41;2.63;;;1.60;;
56752;SDS011;42627;42.646;23.642;2022-07-22T13:00:43;2.90;;;1.92;;
56752;SDS011;42627;42.646;23.642;2022-07-22T13:02:45;4.65;;;2.20;;
56752;SDS011;42627;42.646;23.642;2022-07-22T13:09:40;4.03;;;1.80;;
56752;SDS011;42627;42.646;23.642;2022-07-22T13:11:41;3.78;;;1.77;;
56752;SDS011;42627;42.646;23.642;2022-07-22T13:13:44;3.58;;;1.73;;
56752;SDS011;42627;42.646;23.642;2022-07-22T13:15:45;4.40;;;1.90;;
56752;SDS011;42627;42.646;23.642;2022-07-22T13:17:46;4.10;;;1.65;;
56752;SDS011;42627;42.646;23.642;2022-07-22T13:19:47;3.47;;;1.67;;
56752;SDS011;42627;42.646;23.642;2022-07-22T13:21:48;3.40;;;1.67;;
56752;SDS011;42627;42.646;23.642;2022-07-22T13:23:49;3.88;;;1.90;;
56752;SDS011;42627;42.646;23.642;2022-07-22T13:25:50;3.90;;;1.90;;
56752;SDS011;42627;42.646;23.642;2022-07-22T13:27:50;5.07;;;1.52;;
56752;SDS011;42627;42.646;23.642;2022-07-22T13:29:51;4.32;;;1.52;;
56752;SDS011;42627;42.646;23.642;2022-07-22T13:31:52;3.05;;;1.65;;
56752;SDS011;42627;42.646;23.642;2022-07-22T13:33:52;2.40;;;1.40;;
56752;SDS011;42627;42.646;23.642;2022-07-22T13:35:53;2.63;;;1.70;;
56752;SDS011;42627;42.646;23.642;2022-07-22T13:37:54;3.00;;;1.35;;
56752;SDS011;42627;42.646;23.642;2022-07-22T13:39:56;4.13;;;2.85;;
56752;SDS011;42627;42.646;23.642;2022-07-22T13:41:56;5.15;;;1.98;;
56752;SDS011;42627;42.646;23.642;2022-07-22T13:43:57;4.18;;;1.65;;
56752;SDS011;42627;42.646;23.642;2022-07-22T13:45:58;3.70;;;1.90;;
56752;SDS011;42627;42.646;23.642;2022-07-22T13:47:58;4.00;;;1.60;;
56752;SDS011;42627;42.646;23.642;2022-07-22T13:54:48;2.50;;;1.40;;
56752;SDS011;42627;42.646;23.642;2022-07-22T13:56:50;3.38;;;2.05;;